createdAt,value
2018-12-23T00:01:41.736Z,100398.81
2018-12-23T00:08:04.153Z,100418.28
2018-12-23T00:09:42.153Z,100411.46
2018-12-23T00:13:07.041Z,100423.77
2018-12-23T00:14:42.190Z,100420.30
2018-12-23T00:16:18.031Z,100413.72
2018-12-23T00:17:53.177Z,100426.83
2018-12-23T00:19:28.172Z,100422.03
2018-12-23T00:21:06.531Z,100428.11
2018-12-23T00:22:44.715Z,100423.09
2018-12-23T00:24:30.511Z,100430.86
2018-12-23T00:26:05.475Z,100437.05
2018-12-23T00:27:45.772Z,100443.78
2018-12-23T00:29:20.814Z,100447.34
2018-12-23T00:30:56.815Z,100443.48
2018-12-23T00:32:35.513Z,100441.45
2018-12-23T00:34:17.756Z,100449.80
2018-12-23T00:35:54.551Z,100443.19
2018-12-23T00:37:29.525Z,100451.06
2018-12-23T00:39:10.004Z,100448.91
2018-12-23T00:40:44.935Z,100441.31
2018-12-23T00:42:19.943Z,100447.25
2018-12-23T00:43:54.913Z,100450.05
2018-12-23T00:45:35.398Z,100453.35
2018-12-23T00:47:14.745Z,100449.70
2018-12-23T00:48:49.756Z,100456.92
2018-12-23T00:50:24.746Z,100459.95
2018-12-23T00:51:59.709Z,100452.05
2018-12-23T00:53:34.711Z,100458.63
2018-12-23T00:55:09.903Z,100465.73
2018-12-23T00:56:44.805Z,100475.51
2018-12-23T00:58:19.771Z,100470.41
2018-12-23T00:59:56.726Z,100486.74
2018-12-23T01:01:33.838Z,100484.87
2018-12-23T01:03:10.993Z,100490.63
2018-12-23T01:04:46.191Z,100491.78
2018-12-23T01:06:21.143Z,100500.54
2018-12-23T01:07:56.214Z,100495.81
2018-12-23T01:09:31.220Z,100504.52
2018-12-23T01:11:12.349Z,100506.11
2018-12-23T01:12:47.657Z,100505.23
2018-12-23T01:14:22.675Z,100509.01
2018-12-23T01:15:57.614Z,100515.80
2018-12-23T01:17:32.558Z,100512.42
2018-12-23T01:19:07.582Z,100511.94
2018-12-23T01:20:42.624Z,100517.47
2018-12-23T01:22:17.587Z,100515.31
2018-12-23T01:23:52.520Z,100525.23
2018-12-23T01:25:27.458Z,100526.18
2018-12-23T01:27:02.493Z,100533.09
2018-12-23T01:28:37.452Z,100519.24
2018-12-23T01:30:12.430Z,100524.64
2018-12-23T01:31:47.356Z,100536.76
2018-12-23T01:33:22.363Z,100529.77
2018-12-23T01:34:57.323Z,100540.46
2018-12-23T01:36:32.259Z,100541.16
2018-12-23T01:38:07.207Z,100548.68
2018-12-23T01:39:42.196Z,100551.83
2018-12-23T01:41:17.140Z,100543.48
2018-12-23T01:42:52.112Z,100550.44
2018-12-23T01:44:27.052Z,100546.09
2018-12-23T01:46:02.064Z,100549.08
2018-12-23T01:47:37.016Z,100555.30
2018-12-23T01:49:11.935Z,100558.22
2018-12-23T01:50:46.880Z,100561.32
2018-12-23T01:52:21.852Z,100567.19
2018-12-23T01:53:56.819Z,100564.06
2018-12-23T01:55:31.772Z,100567.53
2018-12-23T01:57:06.767Z,100577.63
2018-12-23T01:58:41.780Z,100574.80
2018-12-23T02:00:17.200Z,100577.17
2018-12-23T02:01:52.163Z,100582.58
2018-12-23T02:03:27.128Z,100586.58
2018-12-23T02:05:22.446Z,100583.95
2018-12-23T02:07:04.958Z,100587.06
2018-12-23T02:08:49.439Z,100590.97
2018-12-23T02:10:32.127Z,100600.63
2018-12-23T02:12:24.507Z,100599.05
2018-12-23T02:14:00.985Z,100600.68
2018-12-23T02:15:37.998Z,100602.51
2018-12-23T02:17:14.977Z,100609.71
2018-12-23T02:18:50.332Z,100605.41
2018-12-23T02:20:29.879Z,100613.05
2018-12-23T02:22:08.264Z,100607.50
2018-12-23T02:23:43.390Z,100619.45
2018-12-23T02:25:18.699Z,100611.13
2018-12-23T02:26:54.064Z,100616.20
2018-12-23T02:28:29.253Z,100606.31
2018-12-23T02:30:06.420Z,100613.02
2018-12-23T02:31:43.490Z,100617.01
2018-12-23T02:33:19.154Z,100624.25
2018-12-23T02:34:55.211Z,100619.53
2018-12-23T02:36:44.163Z,100622.84
2018-12-23T02:38:38.762Z,100618.16
2018-12-23T02:40:25.820Z,100627.06
2018-12-23T02:42:19.539Z,100628.41
2018-12-23T02:44:17.100Z,100629.15
2018-12-23T02:46:05.830Z,100627.63
2018-12-23T02:48:01.565Z,100623.64
2018-12-23T02:49:50.090Z,100633.05
2018-12-23T02:51:27.590Z,100635.05
2018-12-23T02:53:03.790Z,100628.85
2018-12-23T02:54:39.486Z,100638.16
2018-12-23T02:56:18.657Z,100636.59
2018-12-23T02:58:02.238Z,100639.55
2018-12-23T02:59:39.827Z,100632.12
2018-12-23T03:01:15.864Z,100648.95
2018-12-23T03:02:51.284Z,100652.44
2018-12-23T03:04:27.990Z,100649.16
2018-12-23T03:06:06.099Z,100646.84
2018-12-23T03:07:44.226Z,100660.28
2018-12-23T03:09:32.077Z,100662.25
2018-12-23T03:11:14.873Z,100669.84
2018-12-23T03:12:50.141Z,100666.23
2018-12-23T03:14:25.278Z,100665.79
2018-12-23T03:16:00.215Z,100667.67
2018-12-23T03:17:35.200Z,100672.10
2018-12-23T03:19:10.189Z,100667.77
2018-12-23T03:20:45.171Z,100668.14
2018-12-23T03:22:20.168Z,100674.53
2018-12-23T03:23:55.090Z,100668.95
2018-12-23T03:25:31.176Z,100667.69
2018-12-23T03:27:06.099Z,100664.22
2018-12-23T03:28:41.082Z,100675.02
2018-12-23T03:30:16.059Z,100670.16
2018-12-23T03:31:51.098Z,100673.70
2018-12-23T03:33:26.047Z,100674.66
2018-12-23T03:35:00.957Z,100674.75
2018-12-23T03:36:35.887Z,100680.37
2018-12-23T03:38:10.904Z,100676.95
2018-12-23T03:39:45.860Z,100683.58
2018-12-23T03:41:20.806Z,100682.27
2018-12-23T03:42:55.741Z,100681.86
2018-12-23T03:44:30.756Z,100682.51
2018-12-23T03:46:05.688Z,100688.28
2018-12-23T03:47:40.634Z,100688.01
2018-12-23T03:49:15.599Z,100691.46
2018-12-23T03:50:50.598Z,100692.62
2018-12-23T03:52:25.555Z,100686.69
2018-12-23T03:54:00.487Z,100686.59
2018-12-23T03:55:35.425Z,100686.88
2018-12-23T03:57:10.409Z,100692.66
